createdAt,value
2019-05-14T00:02:31.679Z,9.37
2019-05-14T00:05:01.718Z,9.29
2019-05-14T00:07:31.990Z,9.34
2019-05-14T00:10:01.237Z,9.38
2019-05-14T00:12:31.458Z,9.62
2019-05-14T00:15:02.059Z,9.83
2019-05-14T00:17:31.932Z,9.86
2019-05-14T00:20:07.400Z,9.80
2019-05-14T00:22:32.013Z,9.84
2019-05-14T00:25:01.111Z,9.90
2019-05-14T00:27:31.193Z,9.68
2019-05-14T00:30:02.272Z,9.51
2019-05-14T00:32:31.766Z,9.37
2019-05-14T00:35:01.922Z,9.21
2019-05-14T00:37:32.182Z,9.08
2019-05-14T00:40:01.375Z,9.07
2019-05-14T00:42:31.904Z,9.09
2019-05-14T00:45:01.232Z,9.25
2019-05-14T00:47:31.006Z,9.24
2019-05-14T00:50:02.070Z,9.20
2019-05-14T00:52:31.472Z,9.19
2019-05-14T00:55:01.159Z,9.18
2019-05-14T00:57:31.634Z,9.37
2019-05-14T01:00:01.123Z,9.42
2019-05-14T01:02:31.890Z,9.26
2019-05-14T01:05:01.878Z,9.24
2019-05-14T01:07:31.610Z,9.06
2019-05-14T01:10:01.288Z,8.95
2019-05-14T01:12:31.784Z,8.77
2019-05-14T01:15:09.528Z,8.72
2019-05-14T01:17:31.473Z,8.65
2019-05-14T01:20:03.078Z,8.72
2019-05-14T01:22:31.638Z,8.86
2019-05-14T01:25:01.577Z,9.05
2019-05-14T01:27:31.734Z,9.17
2019-05-14T01:30:02.086Z,9.21
2019-05-14T01:32:31.507Z,9.23
2019-05-14T01:35:01.397Z,9.32
2019-05-14T01:37:31.123Z,9.07
2019-05-14T01:40:01.207Z,8.85
2019-05-14T01:42:32.063Z,8.84
2019-05-14T01:45:02.580Z,8.75
2019-05-14T01:47:31.845Z,8.59
2019-05-14T01:50:02.087Z,8.36
2019-05-14T01:52:31.815Z,8.38
2019-05-14T01:55:02.165Z,8.50
2019-05-14T01:57:31.265Z,8.61
2019-05-14T02:00:02.111Z,8.65
2019-05-14T02:02:31.379Z,8.79
2019-05-14T02:05:02.023Z,8.86
2019-05-14T02:07:31.495Z,8.89
2019-05-14T02:10:01.192Z,8.88
2019-05-14T02:12:31.566Z,8.71
2019-05-14T02:15:02.021Z,8.65
2019-05-14T02:17:31.811Z,8.57
2019-05-14T02:20:02.062Z,8.37
2019-05-14T02:22:32.055Z,8.34
2019-05-14T02:25:02.391Z,8.27
2019-05-14T02:27:34.877Z,8.25
2019-05-14T02:30:02.366Z,8.42
2019-05-14T02:32:31.442Z,8.49
2019-05-14T02:35:00.380Z,8.63
2019-05-14T02:37:30.118Z,8.82
2019-05-14T02:39:59.642Z,8.82
2019-05-14T02:42:29.152Z,8.92
2019-05-14T02:44:59.321Z,8.98
2019-05-14T02:47:29.812Z,8.75
2019-05-14T02:49:59.030Z,8.60
2019-05-14T02:52:29.196Z,8.24
2019-05-14T02:54:59.697Z,7.90
2019-05-14T02:57:30.426Z,7.88
2019-05-14T02:59:59.742Z,7.81
2019-05-14T03:02:29.661Z,7.95
2019-05-14T03:04:59.184Z,8.31
2019-05-14T03:07:29.778Z,8.58
2019-05-14T03:09:59.413Z,8.72
2019-05-14T03:12:30.261Z,8.91
2019-05-14T03:14:58.955Z,8.90
2019-05-14T03:17:29.970Z,8.90
2019-05-14T03:20:00.097Z,8.93
2019-05-14T03:22:43.366Z,8.86
2019-05-14T03:24:59.805Z,8.50
2019-05-14T03:27:30.360Z,8.22
2019-05-14T03:29:59.391Z,7.85
2019-05-14T03:32:33.145Z,7.74
2019-05-14T03:35:03.532Z,7.79
2019-05-14T03:37:31.040Z,7.92
2019-05-14T03:39:59.544Z,8.19
2019-05-14T03:42:29.220Z,8.28
2019-05-14T03:44:59.577Z,8.27
2019-05-14T03:47:29.816Z,8.43
2019-05-14T03:49:59.078Z,8.49
2019-05-14T03:52:29.252Z,8.59
2019-05-14T03:55:01.304Z,8.59
2019-05-14T03:57:29.169Z,8.30
2019-05-14T03:59:59.829Z,7.94
2019-05-14T04:02:29.669Z,7.84
2019-05-14T04:04:59.970Z,7.71
2019-05-14T04:07:30.820Z,7.61
2019-05-14T04:10:00.435Z,7.63
2019-05-14T04:12:31.766Z,7.79
2019-05-14T04:15:02.738Z,7.98
2019-05-14T04:17:40.926Z,8.02
2019-05-14T04:20:09.401Z,8.20
2019-05-14T04:22:39.451Z,8.34
2019-05-14T04:25:10.893Z,8.35
2019-05-14T04:27:40.528Z,8.40
2019-05-14T04:30:10.891Z,8.59
2019-05-14T04:32:41.461Z,8.60
2019-05-14T04:35:10.740Z,8.70
2019-05-14T04:37:40.285Z,8.77
2019-05-14T04:40:10.123Z,8.75
2019-05-14T04:42:40.094Z,8.65
2019-05-14T04:45:11.140Z,8.68
2019-05-14T04:47:42.144Z,8.59
2019-05-14T04:50:10.760Z,8.57
2019-05-14T04:52:40.444Z,8.73
2019-05-14T04:55:10.120Z,8.76
2019-05-14T04:57:39.553Z,8.81
2019-05-14T05:00:12.162Z,8.82
2019-05-14T05:02:39.942Z,8.77
2019-05-14T05:05:09.267Z,8.84
2019-05-14T05:07:40.293Z,8.72
2019-05-14T05:10:10.388Z,8.50
2019-05-14T05:12:39.141Z,8.37
2019-05-14T05:15:09.741Z,8.10
2019-05-14T05:17:47.202Z,8.11
2019-05-14T05:20:10.051Z,8.27
2019-05-14T05:22:39.626Z,8.48
2019-05-14T05:25:08.641Z,8.85
2019-05-14T05:27:38.226Z,9.03
2019-05-14T05:30:08.602Z,9.23
2019-05-14T05:32:38.840Z,9.47
2019-05-14T05:35:09.572Z,9.53
2019-05-14T05:37:38.602Z,9.57
2019-05-14T05:40:09.192Z,9.64
2019-05-14T05:42:38.602Z,9.37
2019-05-14T05:45:09.103Z,9.07
2019-05-14T05:47:39.125Z,9.09
2019-05-14T05:50:08.838Z,9.19
2019-05-14T05:52:38.757Z,9.44
2019-05-14T05:55:08.880Z,9.84
2019-05-14T05:57:39.347Z,9.92
2019-05-14T06:00:09.578Z,9.97
2019-05-14T06:02:39.953Z,9.87
2019-05-14T06:05:08.857Z,9.85
2019-05-14T06:07:39.427Z,9.78
2019-05-14T06:10:08.968Z,9.89
2019-05-14T06:12:38.795Z,10.25
2019-05-14T06:15:08.695Z,10.55
2019-05-14T06:17:39.125Z,10.53
2019-05-14T06:20:08.533Z,10.35
2019-05-14T06:22:38.546Z,10.31
2019-05-14T06:25:11.041Z,10.42
2019-05-14T06:27:38.355Z,10.86
2019-05-14T06:30:09.148Z,12.75
2019-05-14T06:32:38.707Z,14.57
2019-05-14T06:35:08.901Z,13.82
2019-05-14T06:37:38.476Z,12.72
2019-05-14T06:40:08.755Z,12.15
2019-05-14T06:42:39.414Z,12.07
2019-05-14T06:45:09.006Z,12.22
2019-05-14T06:47:38.250Z,12.48
2019-05-14T06:50:08.491Z,12.60
2019-05-14T06:52:38.622Z,12.32
2019-05-14T06:55:09.076Z,12.27
2019-05-14T06:57:39.336Z,12.24
2019-05-14T07:00:08.582Z,12.23
2019-05-14T07:02:43.364Z,12.63
2019-05-14T07:05:08.392Z,12.94
2019-05-14T07:07:40.154Z,13.48
2019-05-14T07:10:08.975Z,13.91
2019-05-14T07:12:38.765Z,14.00
2019-05-14T07:15:09.237Z,14.15
2019-05-14T07:17:38.533Z,14.26
2019-05-14T07:20:08.988Z,14.34
2019-05-14T07:22:39.064Z,14.48
2019-05-14T07:25:09.779Z,14.50
2019-05-14T07:27:39.360Z,14.53
2019-05-14T07:30:09.771Z,14.56
2019-05-14T07:32:39.511Z,15.04
2019-05-14T07:35:09.257Z,15.14
2019-05-14T07:37:39.550Z,15.04
2019-05-14T07:40:08.713Z,15.11
2019-05-14T07:42:38.371Z,15.28
2019-05-14T07:45:09.546Z,15.25
2019-05-14T07:47:38.974Z,15.29
2019-05-14T07:50:08.771Z,15.44
2019-05-14T07:52:45.545Z,15.64
2019-05-14T07:55:09.509Z,15.59
2019-05-14T07:57:39.270Z,15.56
2019-05-14T08:00:09.993Z,15.80
2019-05-14T08:02:38.604Z,15.88
2019-05-14T08:05:08.839Z,16.04
2019-05-14T08:07:38.824Z,16.05
2019-05-14T08:10:10.569Z,16.17
2019-05-14T08:12:39.368Z,16.44
2019-05-14T08:15:17.768Z,16.46
2019-05-14T08:17:39.483Z,16.90
2019-05-14T08:20:10.100Z,17.14
2019-05-14T08:22:38.803Z,17.25
2019-05-14T08:25:08.929Z,17.63
2019-05-14T08:27:39.022Z,17.81
2019-05-14T08:30:10.204Z,17.88
2019-05-14T08:32:39.178Z,18.14
2019-05-14T08:35:09.053Z,18.35
2019-05-14T08:37:38.683Z,18.39
2019-05-14T08:40:09.505Z,18.51
2019-05-14T08:42:38.522Z,18.67
2019-05-14T08:45:10.592Z,18.60
2019-05-14T08:47:39.078Z,18.61
2019-05-14T08:50:09.097Z,18.55
2019-05-14T08:52:39.304Z,18.56
2019-05-14T08:55:11.089Z,18.82
2019-05-14T08:57:38.920Z,19.20
2019-05-14T09:00:13.680Z,19.09
2019-05-14T09:02:39.293Z,18.88
2019-05-14T09:05:10.482Z,18.82
2019-05-14T09:07:38.681Z,18.84
2019-05-14T09:10:08.963Z,18.40
2019-05-14T09:12:38.766Z,18.41
2019-05-14T09:15:09.841Z,18.81
2019-05-14T09:17:39.006Z,19.32
2019-05-14T09:20:11.048Z,19.62
2019-05-14T09:22:39.733Z,18.98
2019-05-14T09:25:08.786Z,18.63
2019-05-14T09:27:38.730Z,18.90
2019-05-14T09:30:09.622Z,19.15
2019-05-14T09:32:38.933Z,19.01
2019-05-14T09:35:09.771Z,19.33
2019-05-14T09:37:39.617Z,19.25
2019-05-14T09:40:08.989Z,19.07
2019-05-14T09:42:39.230Z,18.89
2019-05-14T09:45:11.240Z,19.00
2019-05-14T09:47:39.218Z,19.36
2019-05-14T09:50:16.665Z,19.31
2019-05-14T09:52:39.290Z,19.32
2019-05-14T09:55:09.373Z,19.82
2019-05-14T09:57:38.863Z,19.83
2019-05-14T10:00:09.128Z,19.64
2019-05-14T10:02:39.261Z,19.64
2019-05-14T10:05:09.075Z,18.98
2019-05-14T10:07:39.157Z,18.93
2019-05-14T10:10:09.418Z,19.53
2019-05-14T10:12:51.221Z,19.46
2019-05-14T10:15:10.369Z,19.46
2019-05-14T10:17:39.453Z,19.20
2019-05-14T10:20:09.784Z,18.74
2019-05-14T10:22:39.810Z,18.25
2019-05-14T10:25:09.359Z,17.66
2019-05-14T10:27:37.986Z,17.59
2019-05-14T10:30:10.580Z,17.73
2019-05-14T10:32:41.392Z,18.42
2019-05-14T10:35:09.791Z,18.93
2019-05-14T10:37:40.038Z,18.97
2019-05-14T10:40:10.527Z,19.09
2019-05-14T10:42:40.295Z,19.29
2019-05-14T10:45:12.688Z,19.70
2019-05-14T10:47:39.992Z,19.92
2019-05-14T10:50:13.337Z,20.16
2019-05-14T10:52:39.634Z,20.34
2019-05-14T10:55:08.505Z,20.21
2019-05-14T10:57:37.831Z,20.10
2019-05-14T11:00:08.937Z,20.03
2019-05-14T11:02:38.721Z,20.06
2019-05-14T11:05:08.665Z,20.20
2019-05-14T11:07:41.574Z,20.61
2019-05-14T11:10:09.389Z,20.65
2019-05-14T11:12:39.549Z,20.72
2019-05-14T11:15:09.602Z,20.85
2019-05-14T11:17:40.738Z,21.26
2019-05-14T11:20:08.792Z,21.64
2019-05-14T11:22:38.091Z,21.64
2019-05-14T11:25:09.183Z,21.73
2019-05-14T11:27:38.914Z,21.22
2019-05-14T11:30:09.108Z,20.74
2019-05-14T11:32:38.697Z,20.45
2019-05-14T11:35:12.932Z,20.49
2019-05-14T11:37:41.482Z,20.89
2019-05-14T11:40:10.690Z,21.58
2019-05-14T11:42:39.297Z,21.68
2019-05-14T11:45:09.892Z,21.65
2019-05-14T11:47:38.409Z,21.38
2019-05-14T11:50:09.739Z,21.05
2019-05-14T11:52:38.952Z,21.14
2019-05-14T11:55:09.285Z,21.21
2019-05-14T11:57:38.532Z,21.15
2019-05-14T12:00:08.764Z,21.07
2019-05-14T12:02:38.500Z,21.27
2019-05-14T12:05:09.055Z,21.54
2019-05-14T12:07:39.023Z,21.25
2019-05-14T12:10:09.262Z,21.33
2019-05-14T12:12:38.614Z,21.43
2019-05-14T12:15:09.120Z,20.63
2019-05-14T12:17:39.331Z,20.45
2019-05-14T12:20:09.091Z,20.49
2019-05-14T12:22:39.357Z,20.60
2019-05-14T12:25:09.448Z,20.95
2019-05-14T12:27:39.034Z,21.21
2019-05-14T12:30:09.685Z,21.34
2019-05-14T12:32:39.788Z,21.35
2019-05-14T12:35:09.141Z,20.71
2019-05-14T12:37:38.800Z,20.52
2019-05-14T12:40:08.944Z,20.96
2019-05-14T12:42:39.193Z,21.23
2019-05-14T12:45:10.601Z,20.98
2019-05-14T12:47:39.478Z,21.27
2019-05-14T12:50:09.720Z,21.70
2019-05-14T12:52:39.224Z,21.92
2019-05-14T12:55:09.147Z,22.07
2019-05-14T12:57:39.389Z,22.06
2019-05-14T13:00:09.872Z,21.77
2019-05-14T13:02:39.367Z,21.60
2019-05-14T13:05:08.998Z,21.16
2019-05-14T13:07:41.410Z,21.27
2019-05-14T13:10:09.286Z,21.67
2019-05-14T13:12:39.164Z,21.67
2019-05-14T13:15:08.903Z,21.75
2019-05-14T13:17:38.814Z,21.16
2019-05-14T13:20:13.762Z,20.80
2019-05-14T13:22:46.146Z,20.55
2019-05-14T13:25:11.161Z,20.76
2019-05-14T13:27:39.860Z,20.98
2019-05-14T13:30:09.382Z,20.99
2019-05-14T13:32:39.325Z,20.91
2019-05-14T13:35:13.161Z,21.01
2019-05-14T13:37:40.155Z,21.24
2019-05-14T13:40:13.642Z,21.52
2019-05-14T13:42:44.244Z,21.54
2019-05-14T13:45:11.935Z,21.51
2019-05-14T13:47:40.482Z,21.70
2019-05-14T13:50:10.158Z,21.60
2019-05-14T13:52:44.435Z,21.74
2019-05-14T13:55:10.080Z,21.72
2019-05-14T13:57:39.756Z,21.66
2019-05-14T14:00:12.167Z,21.59
2019-05-14T14:02:40.797Z,21.30
2019-05-14T14:05:10.350Z,21.47
2019-05-14T14:07:39.698Z,21.43
2019-05-14T14:10:10.156Z,21.29
2019-05-14T14:12:40.391Z,21.32
2019-05-14T14:15:10.383Z,21.31
2019-05-14T14:17:39.701Z,21.37
2019-05-14T14:20:09.229Z,21.13
2019-05-14T14:22:40.096Z,20.89
2019-05-14T14:25:09.266Z,20.89
2019-05-14T14:27:40.869Z,21.06
2019-05-14T14:30:09.815Z,20.94
2019-05-14T14:32:40.725Z,20.95
2019-05-14T14:35:09.069Z,21.01
2019-05-14T14:37:39.743Z,21.19
2019-05-14T14:40:10.142Z,21.06
2019-05-14T14:42:40.034Z,21.02
2019-05-14T14:45:10.100Z,21.03
2019-05-14T14:47:39.707Z,21.07
2019-05-14T14:50:09.173Z,21.03
2019-05-14T14:52:37.794Z,21.11
2019-05-14T14:55:06.969Z,21.22
2019-05-14T14:57:35.624Z,21.33
2019-05-14T15:00:05.541Z,21.48
2019-05-14T15:02:34.072Z,21.30
2019-05-14T15:05:02.862Z,21.15
2019-05-14T15:07:31.488Z,21.29
2019-05-14T15:10:00.065Z,21.08
2019-05-14T15:12:29.246Z,21.12
2019-05-14T15:14:59.347Z,21.00
2019-05-14T15:17:29.510Z,20.99
2019-05-14T15:19:59.471Z,20.91
2019-05-14T15:22:30.870Z,20.75
2019-05-14T15:24:58.812Z,20.95
2019-05-14T15:27:28.233Z,20.95
2019-05-14T15:29:59.310Z,20.76
2019-05-14T15:32:30.024Z,20.73
2019-05-14T15:34:59.435Z,20.54
2019-05-14T15:37:28.608Z,20.47
2019-05-14T15:39:58.176Z,20.40
2019-05-14T15:42:28.304Z,20.28
2019-05-14T15:44:59.834Z,20.39
2019-05-14T15:47:29.703Z,20.39
2019-05-14T15:49:59.457Z,20.27
2019-05-14T15:52:29.297Z,20.30
2019-05-14T15:54:57.929Z,20.33
2019-05-14T15:57:28.814Z,20.31
2019-05-14T16:00:00.896Z,20.15
2019-05-14T16:02:29.566Z,20.25
2019-05-14T16:04:59.118Z,20.41
2019-05-14T16:07:29.286Z,20.45
2019-05-14T16:10:00.683Z,20.43
2019-05-14T16:12:32.134Z,20.32
2019-05-14T16:14:58.639Z,20.00
2019-05-14T16:17:30.218Z,19.74
2019-05-14T16:19:57.538Z,19.67
2019-05-14T16:22:26.232Z,19.80
2019-05-14T16:24:57.105Z,19.82
2019-05-14T16:27:25.014Z,19.77
2019-05-14T16:29:53.634Z,19.82
2019-05-14T16:32:22.219Z,19.75
2019-05-14T16:34:50.714Z,19.62
2019-05-14T16:37:19.375Z,19.61
2019-05-14T16:39:48.901Z,19.50
2019-05-14T16:42:20.535Z,19.36
2019-05-14T16:44:48.261Z,19.38
2019-05-14T16:47:18.858Z,19.36
2019-05-14T16:49:48.224Z,19.34
2019-05-14T16:52:18.083Z,19.34
2019-05-14T16:54:48.795Z,19.30
2019-05-14T16:57:18.609Z,19.04
2019-05-14T16:59:49.670Z,18.86
2019-05-14T17:02:19.144Z,18.78
2019-05-14T17:04:48.299Z,19.00
2019-05-14T17:07:18.226Z,19.03
2019-05-14T17:09:49.133Z,18.95
2019-05-14T17:12:20.156Z,19.10
2019-05-14T17:14:47.700Z,19.24
2019-05-14T17:17:16.338Z,19.37
2019-05-14T17:19:44.836Z,19.35
2019-05-14T17:22:25.305Z,19.36
2019-05-14T17:24:43.688Z,19.36
2019-05-14T17:27:12.592Z,19.12
2019-05-14T17:29:41.242Z,19.00
2019-05-14T17:32:09.814Z,18.84
2019-05-14T17:34:38.826Z,18.71
2019-05-14T17:37:08.896Z,18.61
2019-05-14T17:39:38.710Z,18.57
2019-05-14T17:42:11.389Z,18.40
2019-05-14T17:44:38.857Z,18.39
2019-05-14T17:47:07.633Z,18.27
2019-05-14T17:49:36.250Z,18.31
2019-05-14T17:52:04.815Z,18.12
2019-05-14T17:54:33.462Z,17.99
2019-05-14T17:57:02.035Z,17.90
2019-05-14T17:59:33.467Z,17.79
2019-05-14T18:02:01.231Z,17.75
2019-05-14T18:04:29.849Z,17.69
2019-05-14T18:06:59.190Z,17.56
2019-05-14T18:09:29.352Z,17.54
2019-05-14T18:11:58.591Z,17.43
2019-05-14T18:14:28.420Z,17.40
2019-05-14T18:16:58.494Z,17.38
2019-05-14T18:19:28.919Z,17.30
2019-05-14T18:21:59.295Z,17.31
2019-05-14T18:24:28.684Z,17.33
2019-05-14T18:26:57.468Z,17.28
2019-05-14T18:29:26.115Z,17.08
2019-05-14T18:31:55.359Z,17.00
2019-05-14T18:34:24.111Z,16.98
2019-05-14T18:36:52.591Z,16.95
2019-05-14T18:39:21.436Z,16.83
2019-05-14T18:41:50.200Z,16.75
2019-05-14T18:44:19.068Z,16.67
2019-05-14T18:46:48.742Z,16.60
2019-05-14T18:49:19.526Z,16.49
2019-05-14T18:51:50.111Z,16.41
2019-05-14T18:54:18.127Z,16.28
2019-05-14T18:56:48.936Z,16.24
2019-05-14T18:59:21.313Z,16.20
2019-05-14T19:01:49.260Z,16.13
2019-05-14T19:04:18.555Z,16.03
2019-05-14T19:06:48.238Z,15.94
2019-05-14T19:09:18.615Z,15.76
2019-05-14T19:11:48.218Z,15.63
2019-05-14T19:14:18.743Z,15.45
2019-05-14T19:16:49.024Z,15.36
2019-05-14T19:19:17.722Z,15.31
2019-05-14T19:21:48.684Z,15.25
2019-05-14T19:24:18.888Z,15.14
2019-05-14T19:26:49.270Z,15.12
2019-05-14T19:29:18.566Z,15.01
2019-05-14T19:31:48.099Z,14.90
2019-05-14T19:34:19.092Z,14.79
2019-05-14T19:36:47.154Z,14.74
2019-05-14T19:39:15.737Z,14.64
2019-05-14T19:41:44.325Z,14.53
2019-05-14T19:44:13.018Z,14.41
2019-05-14T19:46:41.568Z,14.37
2019-05-14T19:49:09.999Z,14.32
2019-05-14T19:51:38.830Z,14.26
2019-05-14T19:54:08.139Z,14.17
2019-05-14T19:56:51.845Z,14.09
2019-05-14T19:59:09.084Z,14.01
2019-05-14T20:01:38.451Z,13.97
2019-05-14T20:04:09.562Z,13.83
2019-05-14T20:06:38.827Z,13.69
2019-05-14T20:09:09.445Z,13.66
2019-05-14T20:11:39.575Z,13.59
2019-05-14T20:14:08.614Z,13.52
2019-05-14T20:16:39.199Z,13.46
2019-05-14T20:19:08.832Z,13.42
2019-05-14T20:21:39.013Z,13.26
2019-05-14T20:24:07.773Z,13.16
2019-05-14T20:26:38.746Z,13.04
2019-05-14T20:29:08.725Z,13.04
2019-05-14T20:31:38.965Z,12.94
2019-05-14T20:34:08.458Z,12.88
2019-05-14T20:36:38.941Z,12.79
2019-05-14T20:39:08.630Z,12.71
2019-05-14T20:41:38.518Z,12.65
2019-05-14T20:44:07.302Z,12.57
2019-05-14T20:46:38.074Z,12.58
2019-05-14T20:49:08.619Z,12.53
2019-05-14T20:51:38.684Z,12.46
2019-05-14T20:54:08.776Z,12.38
2019-05-14T20:56:36.968Z,12.33
2019-05-14T20:59:05.492Z,12.43
2019-05-14T21:01:34.107Z,12.43
2019-05-14T21:04:02.578Z,12.36
2019-05-14T21:06:31.165Z,12.23
2019-05-14T21:08:59.787Z,12.18
2019-05-14T21:11:28.864Z,12.11
2019-05-14T21:13:58.104Z,11.96
2019-05-14T21:16:28.329Z,11.89
2019-05-14T21:18:59.047Z,11.78
2019-05-14T21:21:28.301Z,11.71
2019-05-14T21:23:58.725Z,11.67
2019-05-14T21:26:29.228Z,11.67
2019-05-14T21:28:58.231Z,11.62
2019-05-14T21:31:28.399Z,11.58
2019-05-14T21:33:58.601Z,11.60
2019-05-14T21:36:28.383Z,11.53
2019-05-14T21:38:58.661Z,11.44
2019-05-14T21:41:29.066Z,11.38
2019-05-14T21:43:58.370Z,11.29
2019-05-14T21:46:28.835Z,11.30
2019-05-14T21:48:58.611Z,11.29
2019-05-14T21:51:28.357Z,11.25
2019-05-14T21:53:58.799Z,11.19
2019-05-14T21:56:29.143Z,11.13
2019-05-14T21:59:01.032Z,11.11
2019-05-14T22:01:31.059Z,11.17
2019-05-14T22:03:59.357Z,11.10
2019-05-14T22:06:29.081Z,11.00
2019-05-14T22:08:59.118Z,10.92
2019-05-14T22:11:28.301Z,10.83
2019-05-14T22:13:58.328Z,10.76
2019-05-14T22:16:28.071Z,10.73
2019-05-14T22:18:59.136Z,10.72
2019-05-14T22:21:28.844Z,10.69
2019-05-14T22:23:58.892Z,10.66
2019-05-14T22:26:28.268Z,10.62
2019-05-14T22:28:58.665Z,10.56
2019-05-14T22:31:29.013Z,10.48
2019-05-14T22:33:58.335Z,10.48
2019-05-14T22:36:29.315Z,10.49
2019-05-14T22:38:57.947Z,10.42
2019-05-14T22:41:28.917Z,10.40
2019-05-14T22:43:59.876Z,10.36
2019-05-14T22:46:27.106Z,10.38
2019-05-14T22:48:55.697Z,10.34
2019-05-14T22:51:24.401Z,10.46
2019-05-14T22:53:53.062Z,10.48
2019-05-14T22:56:21.641Z,10.50
2019-05-14T22:58:50.268Z,10.45
2019-05-14T23:01:18.855Z,10.33
2019-05-14T23:03:48.927Z,10.22
2019-05-14T23:06:18.719Z,10.11
2019-05-14T23:08:48.650Z,9.99
2019-05-14T23:11:19.695Z,9.80
2019-05-14T23:13:48.861Z,9.59
2019-05-14T23:16:32.712Z,9.65
2019-05-14T23:18:48.803Z,9.72
2019-05-14T23:21:17.496Z,9.96
2019-05-14T23:23:46.877Z,10.15
2019-05-14T23:26:15.406Z,10.11
2019-05-14T23:28:45.834Z,10.09
2019-05-14T23:31:14.394Z,10.02
2019-05-14T23:33:43.045Z,9.81
2019-05-14T23:36:11.806Z,9.60
2019-05-14T23:38:40.425Z,9.52
2019-05-14T23:41:09.049Z,9.26
2019-05-14T23:43:39.186Z,9.08
2019-05-14T23:46:09.263Z,9.07
2019-05-14T23:48:39.160Z,9.13
2019-05-14T23:51:08.288Z,9.34
2019-05-14T23:53:39.098Z,9.61
2019-05-14T23:56:08.637Z,9.83
2019-05-14T23:58:37.535Z,9.89
